Punta Gialla — IWUC — position and weather

sailwx.info

Track history (hours):
 
Tides and Currents Weather Stations Pressure Air Temp Water Temp Dewpoint Dewpoint Depression Visibility Wind Speed Wind Dir Waves Ship Positions

Punta Gialla

Last reported at 2015-Mar-06 12:34 UTC. Time now 2015-Mar-06 12:42 UTC.
Position N 44°24' E 008°52'.

Length 52 m; draft 2.7 m.

Type: Tanker. MMSI: 247077500.

Date/timePositionNaut miles runAvg speedWind from/ knotsBaromVisibWave heightAir tempDewpointWater temp
2015-Mar-06 12:34N 44°24' E 008°52'0 0.0
2015-Mar-06 11:33N 44°24' E 008°52'2 1.9
2015-Mar-06 10:33N 44°24' E 008°55'0 0.0
2015-Mar-06 09:33N 44°24' E 008°55'0 0.0
2015-Mar-06 08:33N 44°24' E 008°55'0 0.5
2015-Mar-06 07:33N 44°24' E 008°54'0 0.0
2015-Mar-06 06:33N 44°24' E 008°54'0 0.0
2015-Mar-06 05:33N 44°24' E 008°54'0 0.0
2015-Mar-06 04:33N 44°24' E 008°54'0 0.0
2015-Mar-06 03:33N 44°24' E 008°54'0 0.0
2015-Mar-06 02:33N 44°24' E 008°54'0 0.0
2015-Mar-06 01:33N 44°24' E 008°54'0 0.0
2015-Mar-06 00:33N 44°24' E 008°54'0 0.0
2015-Mar-05 23:33N 44°24' E 008°54'0 0.0
2015-Mar-05 22:33N 44°24' E 008°54'1 1.3
2015-Mar-05 21:33N 44°24' E 008°53'2 2.2
2015-Mar-05 20:33N 44°25' E 008°50'0 0.0
2015-Mar-05 19:33N 44°25' E 008°50'0 0.0
2015-Mar-05 18:22N 44°25' E 008°50'0 0.0
2015-Mar-05 17:33N 44°25' E 008°50'0 0.1
2015-Mar-05 16:33N 44°25' E 008°50'4 3.8
2015-Mar-05 15:33N 44°24' E 008°55'0 0.2
2015-Mar-05 14:33N 44°24' E 008°55'0 0.0
2015-Mar-05 13:33N 44°24' E 008°55'0 0.0
2015-Mar-05 12:33N 44°24' E 008°55'0 0.5
2015-Mar-05 11:33N 44°24' E 008°54'0 0.0
2015-Mar-05 10:33N 44°24' E 008°54'0 0.0
2015-Mar-05 09:33N 44°24' E 008°54'0 0.0
2015-Mar-05 08:33N 44°24' E 008°54'0 0.0
2015-Mar-05 07:33N 44°24' E 008°54'0 0.0
2015-Mar-05 06:33N 44°24' E 008°54'0 0.0
2015-Mar-05 05:33N 44°24' E 008°54'0 0.0
2015-Mar-05 04:33N 44°24' E 008°54'0 0.0
2015-Mar-05 03:33N 44°24' E 008°54'0 0.0
2015-Mar-05 02:33N 44°24' E 008°54'0 0.0
2015-Mar-05 01:33N 44°24' E 008°54'0 0.0
2015-Mar-05 00:33N 44°24' E 008°54'0 0.0
2015-Mar-04 23:33N 44°24' E 008°54'0 0.0
2015-Mar-04 22:33N 44°24' E 008°54'0 0.0
2015-Mar-04 21:33N 44°24' E 008°54'0 0.3
2015-Mar-04 20:33N 44°24' E 008°54'0 0.0
2015-Mar-04 19:33N 44°24' E 008°54'0 0.0
2015-Mar-04 18:33N 44°24' E 008°54'0 0.0
2015-Mar-04 17:33N 44°24' E 008°54'0 0.3
2015-Mar-04 16:33N 44°24' E 008°54'0 0.0
2015-Mar-04 15:33N 44°24' E 008°54'6 5.6
2015-Mar-04 14:33N 44°21' E 008°48'9 8.8
2015-Mar-04 13:33N 44°18' E 008°36'5 5.1
2015-Mar-04 12:33N 44°16' E 008°30'0 0.0
2015-Mar-04 11:33N 44°16' E 008°30'0 0.0
2015-Mar-04 10:33N 44°16' E 008°30'0 0.0
2015-Mar-04 09:33N 44°16' E 008°30'3 2.8
2015-Mar-04 08:33N 44°18' E 008°33'9 8.8
2015-Mar-04 07:34N 44°22' E 008°44'8 7.5
2015-Mar-04 06:34N 44°24' E 008°54'0 0.5
2015-Mar-04 05:34N 44°24' E 008°54'0 0.0
2015-Mar-04 04:33N 44°24' E 008°54'0 0.0
2015-Mar-04 03:34N 44°24' E 008°54'0 0.0
2015-Mar-04 02:34N 44°24' E 008°54'0 0.0
2015-Mar-04 01:33N 44°24' E 008°54'0 0.0
2015-Mar-04 00:34N 44°24' E 008°54'0 0.0
2015-Mar-03 23:34N 44°24' E 008°54'0 0.0
2015-Mar-03 22:34N 44°24' E 008°54'0 0.0
2015-Mar-03 21:34N 44°24' E 008°54'0 0.0
2015-Mar-03 20:34N 44°24' E 008°54'0 0.0
2015-Mar-03 19:34N 44°24' E 008°54'0 0.0
2015-Mar-03 18:34N 44°24' E 008°54'0 0.0
2015-Mar-03 17:34N 44°24' E 008°54'0 0.0
2015-Mar-03 16:34N 44°24' E 008°54'0 0.0
2015-Mar-03 15:34N 44°24' E 008°54'0 0.0
2015-Mar-03 14:34N 44°24' E 008°54'1 0.7
2015-Mar-03 13:34N 44°25' E 008°55'0 0.0
2015-Mar-03 12:34N 44°25' E 008°55'0 0.0
2015-Mar-03 11:34N 44°25' E 008°55'0 0.0
2015-Mar-03 10:34N 44°25' E 008°55'0 0.0
2015-Mar-03 09:34N 44°25' E 008°55'0 0.0
2015-Mar-03 08:34N 44°25' E 008°55'1 0.8
2015-Mar-03 07:34N 44°24' E 008°54'0 0.0
2015-Mar-03 06:33N 44°24' E 008°54'0 0.0
2015-Mar-03 05:34N 44°24' E 008°54'0 0.0
2015-Mar-03 04:34N 44°24' E 008°54'0 0.0
2015-Mar-03 03:33N 44°24' E 008°54'0 0.0
2015-Mar-03 02:34N 44°24' E 008°54'0 0.0
2015-Mar-03 01:33N 44°24' E 008°54'0 0.0
2015-Mar-03 00:34N 44°24' E 008°54'0 0.0
2015-Mar-02 23:34N 44°24' E 008°54'0 0.0
2015-Mar-02 22:34N 44°24' E 008°54'0 0.0
2015-Mar-02 21:33N 44°24' E 008°54'0 0.0
2015-Mar-02 20:34N 44°24' E 008°54'0 0.0
2015-Mar-02 19:33N 44°24' E 008°54'0 0.0
2015-Mar-02 18:34N 44°24' E 008°54'0 0.4
2015-Mar-02 17:33N 44°24' E 008°55'0 0.0
2015-Mar-02 16:33N 44°24' E 008°55'0 0.0
2015-Mar-02 15:34N 44°24' E 008°55'0 0.0
2015-Mar-02 14:34N 44°24' E 008°55'0 0.0
2015-Mar-02 13:33N 44°24' E 008°55'0 0.5
2015-Mar-02 12:33N 44°24' E 008°54'0 0.0
2015-Mar-02 11:34N 44°24' E 008°54'0 0.0
2015-Mar-02 10:34N 44°24' E 008°54'0 0.0
2015-Mar-02 09:34N 44°24' E 008°54'0 0.0
2015-Mar-02 08:34N 44°24' E 008°54'0 0.0
2015-Mar-02 07:33N 44°24' E 008°54'0 0.0
2015-Mar-02 06:33N 44°24' E 008°54'0 0.0
2015-Mar-02 05:34N 44°24' E 008°54'0 0.0
2015-Mar-02 04:34N 44°24' E 008°54'0 0.0
2015-Mar-02 03:34N 44°24' E 008°54'0 0.0
2015-Mar-02 02:34N 44°24' E 008°54'0 0.0
2015-Mar-02 01:34N 44°24' E 008°54'0 0.0
2015-Mar-02 00:33N 44°24' E 008°54'0 0.0
2015-Mar-01 23:34N 44°24' E 008°54'0 0.0
2015-Mar-01 22:33N 44°24' E 008°54'0 0.0
2015-Mar-01 21:34N 44°24' E 008°54'0 0.0
2015-Mar-01 20:34N 44°24' E 008°54'0 0.0
2015-Mar-01 19:34N 44°24' E 008°54'0 0.0
2015-Mar-01 18:32N 44°24' E 008°54'0 0.0
2015-Mar-01 17:34N 44°24' E 008°54'0 0.0
2015-Mar-01 16:34N 44°24' E 008°54'0 0.0
2015-Mar-01 15:33N 44°24' E 008°54'5 4.7
2015-Mar-01 14:34N 44°22' E 008°48'9 9.2
2015-Mar-01 13:33N 44°19' E 008°36'5 4.1
2015-Mar-01 12:21N 44°19' E 008°29'0 0.0
2015-Mar-01 11:21N 44°19' E 008°29'0 0.0
2015-Mar-01 10:33N 44°19' E 008°29'0 0.0
2015-Mar-01 09:29N 44°19' E 008°29'7 7.8
2015-Mar-01 08:34N 44°20' E 008°39'9 8.7
2015-Mar-01 07:34N 44°23' E 008°50'3 3.0
2015-Mar-01 06:34N 44°24' E 008°54'0 0.0
2015-Mar-01 05:34N 44°24' E 008°54'0 0.0
2015-Mar-01 04:34N 44°24' E 008°54'0 0.0
2015-Mar-01 03:34N 44°24' E 008°54'0 0.0
2015-Mar-01 02:34N 44°24' E 008°54'0 0.0
2015-Mar-01 01:33N 44°24' E 008°54'0 0.0
2015-Mar-01 00:34N 44°24' E 008°54'0 0.0
2015-Feb-28 23:33N 44°24' E 008°54'2 1.7
2015-Feb-28 22:34N 44°24' E 008°52'0 0.0
2015-Feb-28 21:34N 44°24' E 008°52'0 0.0
2015-Feb-28 20:34N 44°24' E 008°52'0 0.0
2015-Feb-28 19:33N 44°24' E 008°52'2 1.7
2015-Feb-28 18:33N 44°24' E 008°54'0 0.0
2015-Feb-28 17:33N 44°24' E 008°54'0 0.0
2015-Feb-28 16:33N 44°24' E 008°54'0 0.0
2015-Feb-28 15:33N 44°24' E 008°54'0 0.0
2015-Feb-28 14:33N 44°24' E 008°54'0 0.0
2015-Feb-28 13:33N 44°24' E 008°54'0 0.0
2015-Feb-28 12:33N 44°24' E 008°54'0 0.0
2015-Feb-28 11:33N 44°24' E 008°54'0 0.0
2015-Feb-28 10:34N 44°24' E 008°54'0 0.0
2015-Feb-28 09:33N 44°24' E 008°54'0 0.0
2015-Feb-28 08:33N 44°24' E 008°54'0 0.0
2015-Feb-28 07:33N 44°24' E 008°54'0 0.0
2015-Feb-28 06:34N 44°24' E 008°54'0 0.0
2015-Feb-28 05:34N 44°24' E 008°54'0 0.0
2015-Feb-28 04:33N 44°24' E 008°54'0 0.0
2015-Feb-28 03:34N 44°24' E 008°54'0 0.0
2015-Feb-28 02:34N 44°24' E 008°54'0 0.0
2015-Feb-28 01:33N 44°24' E 008°54'0 0.0
2015-Feb-28 00:34N 44°24' E 008°54'0 0.0
2015-Feb-27 23:33N 44°24' E 008°54'0 0.0
2015-Feb-27 22:33N 44°24' E 008°54'0 0.0
2015-Feb-27 21:33N 44°24' E 008°54'0 0.0
2015-Feb-27 20:33N 44°24' E 008°54'0 0.0
2015-Feb-27 19:34N 44°24' E 008°54'0 0.0
2015-Feb-27 18:34N 44°24' E 008°54'0 0.0
2015-Feb-27 17:34N 44°24' E 008°54'0 0.0
2015-Feb-27 16:33N 44°24' E 008°54'0 0.0
2015-Feb-27 15:33N 44°24' E 008°54'0 0.0
2015-Feb-27 14:33N 44°24' E 008°54'0 0.0
2015-Feb-27 13:33N 44°24' E 008°54'2 1.7
2015-Feb-27 12:34N 44°23' E 008°52'9 9.2
2015-Feb-27 11:33N 44°19' E 008°41'9 9.3
2015-Feb-27 10:33N 44°16' E 008°28'1 1.1
2015-Feb-27 09:34N 44°16' E 008°27'0 0.0
2015-Feb-27 08:34N 44°16' E 008°27'6 5.6
2015-Feb-27 07:34N 44°16' E 008°35'10 9.7
2015-Feb-27 06:34N 44°20' E 008°47'6 6.4
2015-Feb-27 05:33N 44°24' E 008°54'0 0.1
2015-Feb-27 04:34N 44°24' E 008°54'0 0.0
2015-Feb-27 03:34N 44°24' E 008°54'0 0.0
2015-Feb-27 02:34N 44°24' E 008°54'0 0.0
2015-Feb-27 01:34N 44°24' E 008°54'0 0.0
2015-Feb-27 00:33N 44°24' E 008°54'0 0.0
2015-Feb-26 23:33N 44°24' E 008°54'0 0.0
2015-Feb-26 22:33N 44°24' E 008°54'0 0.0
2015-Feb-26 21:33N 44°24' E 008°54'0 0.0
2015-Feb-26 20:34N 44°24' E 008°54'0 0.0
2015-Feb-26 19:34N 44°24' E 008°54'0 0.0
2015-Feb-26 18:33N 44°24' E 008°54'0 0.0
2015-Feb-26 17:33N 44°24' E 008°54'0 0.0
2015-Feb-26 16:34N 44°24' E 008°54'0 0.0
2015-Feb-26 15:33N 44°24' E 008°54'0 0.0
2015-Feb-26 14:33N 44°24' E 008°54'0 0.0
2015-Feb-26 13:33N 44°24' E 008°54'0 0.0
2015-Feb-26 12:33N 44°24' E 008°54'0 0.0
2015-Feb-26 11:33N 44°24' E 008°54'0 0.0
2015-Feb-26 10:33N 44°24' E 008°54'0 0.0
2015-Feb-26 09:32N 44°24' E 008°54'0 0.0
2015-Feb-26 08:33N 44°24' E 008°54'0 0.0
2015-Feb-26 07:33N 44°24' E 008°54'0 0.0
2015-Feb-26 06:33N 44°24' E 008°54'0 0.0
2015-Feb-26 05:33N 44°24' E 008°54'0 0.0
2015-Feb-26 04:34N 44°24' E 008°54'3 3.3
2015-Feb-26 03:34N 44°25' E 008°50'0 0.0
2015-Feb-26 02:34N 44°25' E 008°50'0 0.0
2015-Feb-26 01:34N 44°25' E 008°50'0 0.0
2015-Feb-26 00:33N 44°25' E 008°50'0 0.0
2015-Feb-25 23:34N 44°25' E 008°50'0 0.0
2015-Feb-25 22:34N 44°25' E 008°50'0 0.0
2015-Feb-25 21:34N 44°25' E 008°50'0 0.3
2015-Feb-25 20:33N 44°25' E 008°50'0 0.0
2015-Feb-25 19:33N 44°25' E 008°50'0 0.0
2015-Feb-25 18:33N 44°25' E 008°50'0 0.0
2015-Feb-25 17:34N 44°25' E 008°50'2 2.3
2015-Feb-25 16:33N 44°24' E 008°52'2 2.1
2015-Feb-25 15:34N 44°24' E 008°55'0 0.0
2015-Feb-25 14:34N 44°24' E 008°55'0 0.5
2015-Feb-25 13:33N 44°24' E 008°54'0 0.0
2015-Feb-25 12:33N 44°24' E 008°54'0 0.0
2015-Feb-25 11:34N 44°24' E 008°54'0 0.0
2015-Feb-25 10:34N 44°24' E 008°54'0 0.0
2015-Feb-25 09:33N 44°24' E 008°54'0 0.0
2015-Feb-25 08:33N 44°24' E 008°54'0 0.0
2015-Feb-25 07:33N 44°24' E 008°54'0 0.0
2015-Feb-25 06:33N 44°24' E 008°54'0 0.0
2015-Feb-25 05:33N 44°24' E 008°54'0 0.0
2015-Feb-25 04:33N 44°24' E 008°54'0 0.0
2015-Feb-25 03:33N 44°24' E 008°54'0 0.0
2015-Feb-25 02:33N 44°24' E 008°54'0 0.0
2015-Feb-25 01:34N 44°24' E 008°54'0 0.0
2015-Feb-25 00:34N 44°24' E 008°54'0 0.0
2015-Feb-24 23:33N 44°24' E 008°54'0 0.0
2015-Feb-24 22:34N 44°24' E 008°54'0 0.0
2015-Feb-24 21:33N 44°24' E 008°54'0 0.0
2015-Feb-24 20:33N 44°24' E 008°54'0 0.0
2015-Feb-24 19:34N 44°24' E 008°54'0 0.0
2015-Feb-24 18:34N 44°24' E 008°54'0 0.0
2015-Feb-24 17:33N 44°24' E 008°54'0 0.0
2015-Feb-24 16:32N 44°24' E 008°54'0 0.0
2015-Feb-24 15:34N 44°24' E 008°54'0 0.0
2015-Feb-24 14:34N 44°24' E 008°54'0 0.0
2015-Feb-24 13:33N 44°24' E 008°54'  
Track history (hours):
 
Tides and Currents Weather Stations Pressure Air Temp Water Temp Dewpoint Dewpoint Depression Visibility Wind Speed Wind Dir Waves Ship Positions

Punta Gialla

Last reported at 2015-Mar-06 12:34 UTC. Time now 2015-Mar-06 12:42 UTC.
Position N 44°24' E 008°52'.

Length 52 m; draft 2.7 m.

Type: Tanker. MMSI: 247077500.

Date/timePositionNaut miles runAvg speedWind from/ knotsBaromVisibWave heightAir tempDewpointWater temp
2015-Mar-06 12:34N 44°24' E 008°52'0 0.0
2015-Mar-06 11:33N 44°24' E 008°52'2 1.9
2015-Mar-06 10:33N 44°24' E 008°55'0 0.0
2015-Mar-06 09:33N 44°24' E 008°55'0 0.0
2015-Mar-06 08:33N 44°24' E 008°55'0 0.5
2015-Mar-06 07:33N 44°24' E 008°54'0 0.0
2015-Mar-06 06:33N 44°24' E 008°54'0 0.0
2015-Mar-06 05:33N 44°24' E 008°54'0 0.0
2015-Mar-06 04:33N 44°24' E 008°54'0 0.0
2015-Mar-06 03:33N 44°24' E 008°54'0 0.0
2015-Mar-06 02:33N 44°24' E 008°54'0 0.0
2015-Mar-06 01:33N 44°24' E 008°54'0 0.0
2015-Mar-06 00:33N 44°24' E 008°54'0 0.0
2015-Mar-05 23:33N 44°24' E 008°54'0 0.0
2015-Mar-05 22:33N 44°24' E 008°54'1 1.3
2015-Mar-05 21:33N 44°24' E 008°53'2 2.2
2015-Mar-05 20:33N 44°25' E 008°50'0 0.0
2015-Mar-05 19:33N 44°25' E 008°50'0 0.0
2015-Mar-05 18:22N 44°25' E 008°50'0 0.0
2015-Mar-05 17:33N 44°25' E 008°50'0 0.1
2015-Mar-05 16:33N 44°25' E 008°50'4 3.8
2015-Mar-05 15:33N 44°24' E 008°55'0 0.2
2015-Mar-05 14:33N 44°24' E 008°55'0 0.0
2015-Mar-05 13:33N 44°24' E 008°55'0 0.0
2015-Mar-05 12:33N 44°24' E 008°55'0 0.5
2015-Mar-05 11:33N 44°24' E 008°54'0 0.0
2015-Mar-05 10:33N 44°24' E 008°54'0 0.0
2015-Mar-05 09:33N 44°24' E 008°54'0 0.0
2015-Mar-05 08:33N 44°24' E 008°54'0 0.0
2015-Mar-05 07:33N 44°24' E 008°54'0 0.0
2015-Mar-05 06:33N 44°24' E 008°54'0 0.0
2015-Mar-05 05:33N 44°24' E 008°54'0 0.0
2015-Mar-05 04:33N 44°24' E 008°54'0 0.0
2015-Mar-05 03:33N 44°24' E 008°54'0 0.0
2015-Mar-05 02:33N 44°24' E 008°54'0 0.0
2015-Mar-05 01:33N 44°24' E 008°54'0 0.0
2015-Mar-05 00:33N 44°24' E 008°54'0 0.0
2015-Mar-04 23:33N 44°24' E 008°54'0 0.0
2015-Mar-04 22:33N 44°24' E 008°54'0 0.0
2015-Mar-04 21:33N 44°24' E 008°54'0 0.3
2015-Mar-04 20:33N 44°24' E 008°54'0 0.0
2015-Mar-04 19:33N 44°24' E 008°54'0 0.0
2015-Mar-04 18:33N 44°24' E 008°54'0 0.0
2015-Mar-04 17:33N 44°24' E 008°54'0 0.3
2015-Mar-04 16:33N 44°24' E 008°54'0 0.0
2015-Mar-04 15:33N 44°24' E 008°54'6 5.6
2015-Mar-04 14:33N 44°21' E 008°48'9 8.8
2015-Mar-04 13:33N 44°18' E 008°36'5 5.1
2015-Mar-04 12:33N 44°16' E 008°30'0 0.0
2015-Mar-04 11:33N 44°16' E 008°30'0 0.0
2015-Mar-04 10:33N 44°16' E 008°30'0 0.0
2015-Mar-04 09:33N 44°16' E 008°30'3 2.8
2015-Mar-04 08:33N 44°18' E 008°33'9 8.8
2015-Mar-04 07:34N 44°22' E 008°44'8 7.5
2015-Mar-04 06:34N 44°24' E 008°54'0 0.5
2015-Mar-04 05:34N 44°24' E 008°54'0 0.0
2015-Mar-04 04:33N 44°24' E 008°54'0 0.0
2015-Mar-04 03:34N 44°24' E 008°54'0 0.0
2015-Mar-04 02:34N 44°24' E 008°54'0 0.0
2015-Mar-04 01:33N 44°24' E 008°54'0 0.0
2015-Mar-04 00:34N 44°24' E 008°54'0 0.0
2015-Mar-03 23:34N 44°24' E 008°54'0 0.0
2015-Mar-03 22:34N 44°24' E 008°54'0 0.0
2015-Mar-03 21:34N 44°24' E 008°54'0 0.0
2015-Mar-03 20:34N 44°24' E 008°54'0 0.0
2015-Mar-03 19:34N 44°24' E 008°54'0 0.0
2015-Mar-03 18:34N 44°24' E 008°54'0 0.0
2015-Mar-03 17:34N 44°24' E 008°54'0 0.0
2015-Mar-03 16:34N 44°24' E 008°54'0 0.0
2015-Mar-03 15:34N 44°24' E 008°54'0 0.0
2015-Mar-03 14:34N 44°24' E 008°54'1 0.7
2015-Mar-03 13:34N 44°25' E 008°55'0 0.0
2015-Mar-03 12:34N 44°25' E 008°55'0 0.0
2015-Mar-03 11:34N 44°25' E 008°55'0 0.0
2015-Mar-03 10:34N 44°25' E 008°55'0 0.0
2015-Mar-03 09:34N 44°25' E 008°55'0 0.0
2015-Mar-03 08:34N 44°25' E 008°55'1 0.8
2015-Mar-03 07:34N 44°24' E 008°54'0 0.0
2015-Mar-03 06:33N 44°24' E 008°54'0 0.0
2015-Mar-03 05:34N 44°24' E 008°54'0 0.0
2015-Mar-03 04:34N 44°24' E 008°54'0 0.0
2015-Mar-03 03:33N 44°24' E 008°54'0 0.0
2015-Mar-03 02:34N 44°24' E 008°54'0 0.0
2015-Mar-03 01:33N 44°24' E 008°54'0 0.0
2015-Mar-03 00:34N 44°24' E 008°54'0 0.0
2015-Mar-02 23:34N 44°24' E 008°54'0 0.0
2015-Mar-02 22:34N 44°24' E 008°54'0 0.0
2015-Mar-02 21:33N 44°24' E 008°54'0 0.0
2015-Mar-02 20:34N 44°24' E 008°54'0 0.0
2015-Mar-02 19:33N 44°24' E 008°54'0 0.0
2015-Mar-02 18:34N 44°24' E 008°54'0 0.4
2015-Mar-02 17:33N 44°24' E 008°55'0 0.0
2015-Mar-02 16:33N 44°24' E 008°55'0 0.0
2015-Mar-02 15:34N 44°24' E 008°55'0 0.0
2015-Mar-02 14:34N 44°24' E 008°55'0 0.0
2015-Mar-02 13:33N 44°24' E 008°55'0 0.5
2015-Mar-02 12:33N 44°24' E 008°54'0 0.0
2015-Mar-02 11:34N 44°24' E 008°54'0 0.0
2015-Mar-02 10:34N 44°24' E 008°54'0 0.0
2015-Mar-02 09:34N 44°24' E 008°54'0 0.0
2015-Mar-02 08:34N 44°24' E 008°54'0 0.0
2015-Mar-02 07:33N 44°24' E 008°54'0 0.0
2015-Mar-02 06:33N 44°24' E 008°54'0 0.0
2015-Mar-02 05:34N 44°24' E 008°54'0 0.0
2015-Mar-02 04:34N 44°24' E 008°54'0 0.0
2015-Mar-02 03:34N 44°24' E 008°54'0 0.0
2015-Mar-02 02:34N 44°24' E 008°54'0 0.0
2015-Mar-02 01:34N 44°24' E 008°54'0 0.0
2015-Mar-02 00:33N 44°24' E 008°54'0 0.0
2015-Mar-01 23:34N 44°24' E 008°54'0 0.0
2015-Mar-01 22:33N 44°24' E 008°54'0 0.0
2015-Mar-01 21:34N 44°24' E 008°54'0 0.0
2015-Mar-01 20:34N 44°24' E 008°54'0 0.0
2015-Mar-01 19:34N 44°24' E 008°54'0 0.0
2015-Mar-01 18:32N 44°24' E 008°54'0 0.0
2015-Mar-01 17:34N 44°24' E 008°54'0 0.0
2015-Mar-01 16:34N 44°24' E 008°54'0 0.0
2015-Mar-01 15:33N 44°24' E 008°54'5 4.7
2015-Mar-01 14:34N 44°22' E 008°48'9 9.2
2015-Mar-01 13:33N 44°19' E 008°36'5 4.1
2015-Mar-01 12:21N 44°19' E 008°29'0 0.0
2015-Mar-01 11:21N 44°19' E 008°29'0 0.0
2015-Mar-01 10:33N 44°19' E 008°29'0 0.0
2015-Mar-01 09:29N 44°19' E 008°29'7 7.8
2015-Mar-01 08:34N 44°20' E 008°39'9 8.7
2015-Mar-01 07:34N 44°23' E 008°50'3 3.0
2015-Mar-01 06:34N 44°24' E 008°54'0 0.0
2015-Mar-01 05:34N 44°24' E 008°54'0 0.0
2015-Mar-01 04:34N 44°24' E 008°54'0 0.0
2015-Mar-01 03:34N 44°24' E 008°54'0 0.0
2015-Mar-01 02:34N 44°24' E 008°54'0 0.0
2015-Mar-01 01:33N 44°24' E 008°54'0 0.0
2015-Mar-01 00:34N 44°24' E 008°54'0 0.0
2015-Feb-28 23:33N 44°24' E 008°54'2 1.7
2015-Feb-28 22:34N 44°24' E 008°52'0 0.0
2015-Feb-28 21:34N 44°24' E 008°52'0 0.0
2015-Feb-28 20:34N 44°24' E 008°52'0 0.0
2015-Feb-28 19:33N 44°24' E 008°52'2 1.7
2015-Feb-28 18:33N 44°24' E 008°54'0 0.0
2015-Feb-28 17:33N 44°24' E 008°54'0 0.0
2015-Feb-28 16:33N 44°24' E 008°54'0 0.0
2015-Feb-28 15:33N 44°24' E 008°54'0 0.0
2015-Feb-28 14:33N 44°24' E 008°54'0 0.0
2015-Feb-28 13:33N 44°24' E 008°54'0 0.0
2015-Feb-28 12:33N 44°24' E 008°54'0 0.0
2015-Feb-28 11:33N 44°24' E 008°54'0 0.0
2015-Feb-28 10:34N 44°24' E 008°54'0 0.0
2015-Feb-28 09:33N 44°24' E 008°54'0 0.0
2015-Feb-28 08:33N 44°24' E 008°54'0 0.0
2015-Feb-28 07:33N 44°24' E 008°54'0 0.0
2015-Feb-28 06:34N 44°24' E 008°54'0 0.0
2015-Feb-28 05:34N 44°24' E 008°54'0 0.0
2015-Feb-28 04:33N 44°24' E 008°54'0 0.0
2015-Feb-28 03:34N 44°24' E 008°54'0 0.0
2015-Feb-28 02:34N 44°24' E 008°54'0 0.0
2015-Feb-28 01:33N 44°24' E 008°54'0 0.0
2015-Feb-28 00:34N 44°24' E 008°54'0 0.0
2015-Feb-27 23:33N 44°24' E 008°54'0 0.0
2015-Feb-27 22:33N 44°24' E 008°54'0 0.0
2015-Feb-27 21:33N 44°24' E 008°54'0 0.0
2015-Feb-27 20:33N 44°24' E 008°54'0 0.0
2015-Feb-27 19:34N 44°24' E 008°54'0 0.0
2015-Feb-27 18:34N 44°24' E 008°54'0 0.0
2015-Feb-27 17:34N 44°24' E 008°54'0 0.0
2015-Feb-27 16:33N 44°24' E 008°54'0 0.0
2015-Feb-27 15:33N 44°24' E 008°54'0 0.0
2015-Feb-27 14:33N 44°24' E 008°54'0 0.0
2015-Feb-27 13:33N 44°24' E 008°54'2 1.7
2015-Feb-27 12:34N 44°23' E 008°52'9 9.2
2015-Feb-27 11:33N 44°19' E 008°41'9 9.3
2015-Feb-27 10:33N 44°16' E 008°28'1 1.1
2015-Feb-27 09:34N 44°16' E 008°27'0 0.0
2015-Feb-27 08:34N 44°16' E 008°27'6 5.6
2015-Feb-27 07:34N 44°16' E 008°35'10 9.7
2015-Feb-27 06:34N 44°20' E 008°47'6 6.4
2015-Feb-27 05:33N 44°24' E 008°54'0 0.1
2015-Feb-27 04:34N 44°24' E 008°54'0 0.0
2015-Feb-27 03:34N 44°24' E 008°54'0 0.0
2015-Feb-27 02:34N 44°24' E 008°54'0 0.0
2015-Feb-27 01:34N 44°24' E 008°54'0 0.0
2015-Feb-27 00:33N 44°24' E 008°54'0 0.0
2015-Feb-26 23:33N 44°24' E 008°54'0 0.0
2015-Feb-26 22:33N 44°24' E 008°54'0 0.0
2015-Feb-26 21:33N 44°24' E 008°54'0 0.0
2015-Feb-26 20:34N 44°24' E 008°54'0 0.0
2015-Feb-26 19:34N 44°24' E 008°54'0 0.0
2015-Feb-26 18:33N 44°24' E 008°54'0 0.0
2015-Feb-26 17:33N 44°24' E 008°54'0 0.0
2015-Feb-26 16:34N 44°24' E 008°54'0 0.0
2015-Feb-26 15:33N 44°24' E 008°54'0 0.0
2015-Feb-26 14:33N 44°24' E 008°54'0 0.0
2015-Feb-26 13:33N 44°24' E 008°54'0 0.0
2015-Feb-26 12:33N 44°24' E 008°54'0 0.0
2015-Feb-26 11:33N 44°24' E 008°54'0 0.0
2015-Feb-26 10:33N 44°24' E 008°54'0 0.0
2015-Feb-26 09:32N 44°24' E 008°54'0 0.0
2015-Feb-26 08:33N 44°24' E 008°54'0 0.0
2015-Feb-26 07:33N 44°24' E 008°54'0 0.0
2015-Feb-26 06:33N 44°24' E 008°54'0 0.0
2015-Feb-26 05:33N 44°24' E 008°54'0 0.0
2015-Feb-26 04:34N 44°24' E 008°54'3 3.3
2015-Feb-26 03:34N 44°25' E 008°50'0 0.0
2015-Feb-26 02:34N 44°25' E 008°50'0 0.0
2015-Feb-26 01:34N 44°25' E 008°50'0 0.0
2015-Feb-26 00:33N 44°25' E 008°50'0 0.0
2015-Feb-25 23:34N 44°25' E 008°50'0 0.0
2015-Feb-25 22:34N 44°25' E 008°50'0 0.0
2015-Feb-25 21:34N 44°25' E 008°50'0 0.3
2015-Feb-25 20:33N 44°25' E 008°50'0 0.0
2015-Feb-25 19:33N 44°25' E 008°50'0 0.0
2015-Feb-25 18:33N 44°25' E 008°50'0 0.0
2015-Feb-25 17:34N 44°25' E 008°50'2 2.3
2015-Feb-25 16:33N 44°24' E 008°52'2 2.1
2015-Feb-25 15:34N 44°24' E 008°55'0 0.0
2015-Feb-25 14:34N 44°24' E 008°55'0 0.5
2015-Feb-25 13:33N 44°24' E 008°54'0 0.0
2015-Feb-25 12:33N 44°24' E 008°54'0 0.0
2015-Feb-25 11:34N 44°24' E 008°54'0 0.0
2015-Feb-25 10:34N 44°24' E 008°54'0 0.0
2015-Feb-25 09:33N 44°24' E 008°54'0 0.0
2015-Feb-25 08:33N 44°24' E 008°54'0 0.0
2015-Feb-25 07:33N 44°24' E 008°54'0 0.0
2015-Feb-25 06:33N 44°24' E 008°54'0 0.0
2015-Feb-25 05:33N 44°24' E 008°54'0 0.0
2015-Feb-25 04:33N 44°24' E 008°54'0 0.0
2015-Feb-25 03:33N 44°24' E 008°54'0 0.0
2015-Feb-25 02:33N 44°24' E 008°54'0 0.0
2015-Feb-25 01:34N 44°24' E 008°54'0 0.0
2015-Feb-25 00:34N 44°24' E 008°54'0 0.0
2015-Feb-24 23:33N 44°24' E 008°54'0 0.0
2015-Feb-24 22:34N 44°24' E 008°54'0 0.0
2015-Feb-24 21:33N 44°24' E 008°54'0 0.0
2015-Feb-24 20:33N 44°24' E 008°54'0 0.0
2015-Feb-24 19:34N 44°24' E 008°54'0 0.0
2015-Feb-24 18:34N 44°24' E 008°54'0 0.0
2015-Feb-24 17:33N 44°24' E 008°54'0 0.0
2015-Feb-24 16:32N 44°24' E 008°54'0 0.0
2015-Feb-24 15:34N 44°24' E 008°54'0 0.0
2015-Feb-24 14:34N 44°24' E 008°54'0 0.0
2015-Feb-24 13:33N 44°24' E 008°54'  

Dump ship's entire track history